Startpagina
METAR-TAF:

METAR-TAF

Vliegvelden :

Hoedspruit, Zuid-Afrika

breedte: 24-21-17S, lengte: 31-03-01E, hoogte: 531 m

Actueel weer

Dit bericht is 17 uur en het 14 minuten geleden gemaakt, om 10:00 UTC
Wind 5 kt uit het noordnoordwesten
Temperatuur 30°C
Vochtigheid 46%
Druk 1011 hPa

METAR: FAHS 071000Z AUTO 33005KT //// // ////// 30/17 Q1011

Tijdstip: 05:14 (03:14 UTC)

Verwachting

Dit bericht is 21 uur en het 14 minuten geleden gemaakt, om 06:00 UTC
Verwachting geldig van 07 om 07 UTC tot 07 om 18 UTC
Wind 10 kt uit het westen
Zicht 10 km of meer
geen wolken onder 1500 m en geen cumulonimbus
Kans 30% :
Tijdelijke
van 07 om 11 UTC tot 07 om 15 UTC
Gebroken wolken op 1000 ft
lichte regen
Wijzigt naar
van 07 om 12 UTC tot 07 om 14 UTC
Wind 12 kt uit het zuiden

TAF: FAHS 070600Z 0707/0718 27010KT CAVOK TX30/0712Z TN25/0718Z PROB30 TEMPO 0711/0715 -RA BKN010 BECMG 0712/0714 18012KT

Waarnemingen en weersverwachtingen van meer dan 4000 vliegvelden (METAR en TAF).

De beschikbare stations zijn de gele en rode punten op de kaart.

Ga met uw muis naar het station om de naam te zien.

Klik dan om waarnemingen en weersverwachtingen te zien.

kaart wijzigen: klik op de groene knoppen met een zwart kruis om in te zoomen, op de groene knop met een streepje om uit te zoomen of op de groene pijlen voor aangrenzende kaarten.


METAR-TAF: